• Join FlightAware (Why Join?)
  • Login
  • US Flag 
01:39PM EDT


 

Airport Tracker/Info


-or-


 

Live Flight TrackerFlight Track Log ✈ DAL268 ✈ 23-Sep-2013 ✈ KJFK - LLBG / TLV

Flight Track Log - Related Links

Times and Time Zones

All times are in EDT time to prevent confusion due to time zone crossing. See the DAL268 flight status page for this flight to view local times or setup timezone preferences in your user account.

Time Position Orientation Groundspeed Altitude Reporting Facility
EDT Latitude Longitude Course Direction KTS MPH feet Rate Location/Type
09:51PM 40.6380 -73.7930 360° North 150 173  Level FlightAware
09:51PM 40.6480 -73.8160 300° West 175 201 400 1,260 Climbing FlightAware
09:51PM 40.6510 -73.8260 292° West 179 206 700 1,560 Climbing FlightAware
09:51PM 40.6520 -73.8360 278° West 183 211 900 1,200 Climbing FlightAware
09:52PM 40.6450 -73.8580 247° West 205 236 1,300 1,200 Climbing FlightAware
09:52PM 40.6390 -73.8650 222° Southwest 208 239 1,500 1,020 Climbing FlightAware
09:52PM 40.6270 -73.8770 217° Southwest 224 258 1,700 660 Climbing FlightAware
09:52PM 40.6070 -73.8910 208° Southwest 249 287 1,900 420 Climbing FlightAware
09:53PM 40.5970 -73.8930 189° South 259 298 1,900 300 Level FlightAware
09:53PM 40.5680 -73.8740 154° Southeast 271 312 2,100 840 Climbing FlightAware
09:53PM 40.5550 -73.8460 121° Southeast 271 312 2,600 1,260 Climbing FlightAware
09:54PM 40.5460 -73.8150 111° Southeast 276 318 3,000 1,380 Climbing FlightAware
09:54PM 40.5450 -73.8050 97° East 279 321 3,200 1,680 Climbing FlightAware
09:54PM 40.5510 -73.7660 79° East 282 325 3,800 1,740 Climbing FlightAware
09:54PM 40.5560 -73.7340 78° East 284 327 4,400 1,800 Climbing FlightAware
09:55PM 40.5630 -73.6930 77° East 287 330 5,100 1,740 Climbing FlightAware
09:55PM 40.5700 -73.6590 75° East 290 334 5,700 1,500 Climbing FlightAware
09:55PM 40.5750 -73.6470 61° Northeast 290 334 5,800 960 Climbing FlightAware
09:55PM 40.5790 -73.6410 49° Northeast 291 335 5,900 1,500 Climbing FlightAware
09:56PM 40.5870 -73.6320 41° Northeast 289 333 6,100 1,320 Climbing FlightAware
09:56PM 40.5980 -73.6230 32° Northeast 288 331 6,300 1,380 Climbing FlightAware
09:56PM 40.6110 -73.6140 28° Northeast 289 333 6,600 1,680 Climbing FlightAware
09:56PM 40.6360 -73.5950 30° Northeast 292 336 7,200 1,680 Climbing FlightAware
09:57PM 40.6650 -73.5750 28° Northeast 294 338 7,900 1,500 Climbing FlightAware
09:57PM 40.6870 -73.5600 27° Northeast 297 342 8,300 1,380 Climbing FlightAware
09:57PM 40.7120 -73.5450 24° Northeast 300 345 8,800 1,500 Climbing FlightAware
09:58PM 40.7380 -73.5300 24° Northeast 305 351 9,300 1,500 Climbing FlightAware
09:58PM 40.7700 -73.5100 25° Northeast 307 353 9,900 1,080 Climbing FlightAware
09:59PM 40.8130 -73.4850 24° Northeast 326 375 10,400 660 Climbing FlightAware
09:59PM 40.8660 -73.4530 25° Northeast 351 404 10,700 600 Climbing FlightAware
10:00PM 40.9220 -73.4190 25° Northeast 376 433 11,200 780 Climbing FlightAware
10:00PM 40.9750 -73.3860 25° Northeast 396 456 11,600 1,020 Climbing FlightAware
10:01PM 41.0280 -73.3540 24° Northeast 407 468 12,300 1,560 Climbing FlightAware
10:01PM 41.0820 -73.3220 24° Northeast 413 475 13,300 1,860 Climbing FlightAware
10:02PM 41.1450 -73.2830 25° Northeast 417 480 14,500 1,980 Climbing FlightAware
10:03PM 41.2160 -73.2400 24° Northeast 424 488 15,800 1,860 Climbing FlightAware
10:03PM 41.2830 -73.1990 25° Northeast 433 498 16,900 1,620 Climbing FlightAware
10:04PM 41.3460 -73.1590 25° Northeast 440 506 17,800 1,560 Climbing FlightAware
10:04PM 41.3820 -73.1240 36° Northeast 455 524 18,400 1,740 Climbing FlightAware
10:04PM 41.4040 -73.0900 49° Northeast 465 535 18,900 1,740 Climbing FlightAware
10:05PM 41.4410 -73.0070 59° Northeast 475 547 19,800 1,500 Climbing FlightAware
10:06PM 41.4820 -72.9130 60° Northeast 482 555 20,700 1,440 Climbing FlightAware
10:06PM 41.5220 -72.8200 60° Northeast 486 559 21,600 1,380 Climbing FlightAware
10:07PM 41.5590 -72.7360 59° Northeast 492 566 22,300 1,320 Climbing FlightAware
10:07PM 41.5990 -72.6440 60° Northeast 496 571 23,100 1,260 Climbing FlightAware
10:08PM 41.6420 -72.5480 59° Northeast 501 577 23,800 1,140 Climbing FlightAware
10:09PM 41.6870 -72.4570 56° Northeast 499 574 24,500 1,200 Climbing FlightAware
10:09PM 41.7370 -72.3820 48° Northeast 495 570 25,200 1,200 Climbing FlightAware
10:10PM 41.7930 -72.3180 40° Northeast 493 567 25,800 1,080 Climbing FlightAware
10:10PM 41.8670 -72.2350 40° Northeast 498 573 26,500 1,140 Climbing FlightAware
10:11PM 41.9230 -72.1720 40° Northeast 497 572 27,200 1,380 Climbing FlightAware
10:11PM 41.9650 -72.1240 40° Northeast 494 568 27,800 1,380 Climbing FlightAware
10:12PM 42.0480 -72.0300 40° Northeast 488 562 28,900 840 Climbing FlightAware
10:13PM 42.1110 -71.9580 40° Northeast 490 564 29,000 60 Climbing FlightAware
10:13PM 42.1660 -71.8900 42° Northeast 490 564 29,000  Level FlightAware
10:14PM 42.2270 -71.8160 42° Northeast 491 565 29,000  Level FlightAware
10:14PM 42.2900 -71.7380 42° Northeast 491 565 29,000  Level FlightAware
10:15PM 42.3440 -71.6740 41° Northeast 492 566 29,000  Level FlightAware
10:15PM 42.4030 -71.6020 42° Northeast 492 566 29,000  Level FlightAware
10:16PM 42.4660 -71.5230 43° Northeast 491 565 29,000  Level FlightAware
10:17PM 42.5190 -71.4570 43° Northeast 492 566 29,000  Level FlightAware
10:17PM 42.5810 -71.3820 42° Northeast 491 565 29,000  Level FlightAware
10:18PM 42.6410 -71.3070 43° Northeast 491 565 29,000  Level FlightAware
10:18PM 42.7020 -71.2320 42° Northeast 490 564 29,000  Level FlightAware
10:19PM 42.7560 -71.1640 43° Northeast 490 564 29,000  Level FlightAware
10:20PM 42.8130 -71.0930 42° Northeast 492 566 29,000  Level FlightAware
10:20PM 42.8760 -71.0150 42° Northeast 493 567 29,000  Level FlightAware
10:21PM 42.9280 -70.9500 42° Northeast 493 567 29,000  Level FlightAware
10:21PM 42.9910 -70.8720 42° Northeast 493 567 29,000 480 Level FlightAware
10:22PM 43.0530 -70.7920 43° Northeast 493 567 29,600 960 Climbing FlightAware
10:22PM 43.1040 -70.7280 42° Northeast 492 566 30,100 1,020 Climbing FlightAware
10:23PM 43.1680 -70.6470 43° Northeast 493 567 30,800 720 Climbing FlightAware
10:24PM 43.2290 -70.5690 43° Northeast 495 570 31,000 120 Climbing FlightAware
10:24PM 43.2890 -70.4940 42° Northeast 496 571 31,000  Level FlightAware
10:25PM 43.3420 -70.4270 43° Northeast 495 570 31,000  Level FlightAware
10:26PM 43.4120 -70.3350 44° Northeast 488 562 31,000  Level FlightAware
10:26PM 43.4790 -70.2490 43° Northeast 488 562 31,000  Level FlightAware
10:27PM 43.5380 -70.1740 43° Northeast 488 562 31,000  Level FlightAware
10:27PM 43.5990 -70.0940 44° Northeast 488 562 31,000  Level FlightAware
10:28PM 43.6530 -70.0250 43° Northeast 489 563 31,000  Level FlightAware
10:29PM 43.7130 -69.9470 43° Northeast 488 562 31,000  Level FlightAware
10:29PM 43.7710 -69.8710 43° Northeast 493 567 31,000  Level FlightAware
10:30PM 43.8370 -69.7850 43° Northeast 493 567 31,000  Level FlightAware
10:30PM 43.8860 -69.7190 44° Northeast 493 567 31,000  Level FlightAware
10:31PM 43.9470 -69.6410 43° Northeast 493 567 31,000  Level FlightAware
10:32PM 44.0120 -69.5540 44° Northeast 495 570 31,000  Level FlightAware
10:32PM 44.0680 -69.4810 43° Northeast 496 571 31,000  Level FlightAware
10:33PM 44.1350 -69.3940 43° Northeast 497 572 31,000  Level FlightAware
10:33PM 44.1920 -69.3170 44° Northeast 500 575 31,000  Level FlightAware
10:34PM 44.2540 -69.2340 44° Northeast 502 578 31,000  Level FlightAware
10:35PM 44.3150 -69.1510 44° Northeast 502 578 31,000  Level FlightAware
10:35PM 44.3740 -69.0720 44° Northeast 503 579 31,000  Level FlightAware
10:36PM 44.4310 -68.9960 44° Northeast 503 579 31,000  Level FlightAware
10:36PM 44.4830 -68.9250 44° Northeast 504 580 31,000  Level FlightAware
10:37PM 44.5450 -68.8410 44° Northeast 505 581 31,000  Level FlightAware
10:37PM 44.6030 -68.7610 44° Northeast 507 583 31,000  Level FlightAware
10:38PM 44.6680 -68.6740 44° Northeast 507 583 31,000  Level FlightAware
10:39PM 44.7240 -68.5980 44° Northeast 509 586 31,000  Level FlightAware
10:39PM 44.7850 -68.5120 45° Northeast 513 590 31,000  Level FlightAware
10:40PM 44.8470 -68.4280 44° Northeast 516 594 31,000  Level FlightAware
10:40PM 44.8980 -68.3570 45° Northeast 518 596 31,000  Level FlightAware
10:41PM 44.9630 -68.2670 44° Northeast 520 598 31,000  Level FlightAware
10:42PM 45.0250 -68.1810 44° Northeast 520 598 31,000  Level FlightAware
10:42PM 45.0860 -68.0950 45° Northeast 517 595 31,000  Level FlightAware
10:43PM 45.1400 -68.0220 44° Northeast 516 594 31,000  Level FlightAware
10:43PM 45.2010 -67.9360 45° Northeast 514 592 31,000  Level FlightAware
10:44PM 45.2760 -67.8300 45° Northeast 509 586 31,000  Level FlightAware
10:45PM 45.3270 -67.7610 44° Northeast 508 585 31,000  Level FlightAware
10:45PM 45.3920 -67.6830 40° Northeast 512 589 31,000  Level FlightAware
10:46PM 45.4550 -67.6120 38° Northeast 511 588 31,000  Level FlightAware
10:46PM 45.5230 -67.5380 37° Northeast 512 589 31,000  Level FlightAware
10:47PM 45.5860 -67.4680 38° Northeast 510 587 31,000  Level FlightAware
10:47PM 45.6540 -67.3910 38° Northeast 507 583 31,000  Level FlightAware
10:48PM 45.7160 -67.3230 37° Northeast 507 583 31,000  Level FlightAware
10:49PM 45.7910 -67.2380 38° Northeast 507 583 31,000  Level FlightAware
10:49PM 45.8450 -67.1780 38° Northeast 508 585 31,000  Level FlightAware
10:50PM 45.9110 -67.1030 38° Northeast 508 585 31,000  Level FlightAware
10:51PM 46.0030 -67.0000 38° Northeast 508 585 31,000  Level FlightAware
10:51PM 46.0590 -66.9360 38° Northeast 508 585 31,000  Level FlightAware
10:52PM 46.1160 -66.8730 37° Northeast 508 585 31,000  Level FlightAware
10:52PM 46.2080 -66.7630 40° Northeast 513 590 31,000  Level FlightAware
10:53PM 46.2970 -66.6630 38° Northeast 513 590 31,000  Level FlightAware
10:54PM 46.3540 -66.5990 38° Northeast 513 590 31,000  Level FlightAware
10:55PM 46.4130 -66.5320 38° Northeast 513 590 31,000  Level FlightAware
10:55PM 46.4700 -66.4670 38° Northeast 513 590 31,000  Level FlightAware
10:56PM 46.5290 -66.4000 38° Northeast 513 590 31,000  Level FlightAware
10:56PM 46.5860 -66.3350 38° Northeast 513 590 31,000  Level FlightAware
10:57PM 46.6440 -66.2700 38° Northeast 513 590 31,000  Level FlightAware
10:58PM 46.7010 -66.2050 38° Northeast 513 590 31,000  Level FlightAware
10:58PM 46.7580 -66.1400 38° Northeast 513 590 31,000  Level FlightAware
10:59PM 46.8150 -66.0740 38° Northeast 513 590 31,000  Level FlightAware
10:59PM 46.8720 -66.0090 38° Northeast 513 590 31,000  Level FlightAware
11:00PM 46.9300 -65.9440 37° Northeast 513 590 31,000  Level FlightAware
11:01PM 46.9870 -65.8780 38° Northeast 513 590 31,000  Level FlightAware
11:01PM 47.0440 -65.8120 38° Northeast 513 590 31,000  Level FlightAware
11:02PM 47.1010 -65.7470 38° Northeast 513 590 31,000  Level FlightAware
11:02PM 47.1590 -65.6810 38° Northeast 513 590 31,000  Level FlightAware
11:03PM 47.3667 -65.3833 38° Northeast 520 598 31,000  Level Gander Center
11:04PM 47.4833 -65.2333 41° Northeast 530 610 31,000  Level Gander Center
11:05PM 47.5833 -65.1000 42° Northeast 520 598 31,000  Level Gander Center
11:06PM 47.7000 -64.9833 34° Northeast 520 598 31,000  Level Gander Center
11:07PM 47.8000 -64.8167 48° Northeast 520 598 31,000  Level Gander Center
11:08PM 47.9333 -64.7000 30° Northeast 530 610 31,000  Level Gander Center
11:09PM 48.0333 -64.5333 48° Northeast 530 610 31,000  Level Gander Center
11:10PM 48.1500 -64.4167 34° Northeast 530 610 31,000  Level Gander Center
11:11PM 48.2500 -64.2667 45° Northeast 530 610 31,000  Level Gander Center
11:12PM 48.3833 -64.1333 34° Northeast 530 610 31,000  Level Gander Center
11:13PM 48.4833 -63.9833 45° Northeast 520 598 31,000  Level Gander Center
11:14PM 48.5833 -63.8333 45° Northeast 520 598 31,000  Level Gander Center
11:15PM 48.7000 -63.6833 40° Northeast 520 598 31,000  Level Gander Center
11:16PM 48.8167 -63.5333 40° Northeast 530 610 31,000  Level Gander Center
11:17PM 48.9333 -63.4000 37° Northeast 530 610 31,000  Level Gander Center
11:18PM 49.0333 -63.2500 44° Northeast 530 610 31,000  Level Gander Center
11:19PM 49.1333 -63.1000 44° Northeast 520 598 31,000  Level Gander Center
11:20PM 49.2500 -62.9500 40° Northeast 510 587 31,000  Level Gander Center
11:21PM 49.3500 -62.8167 41° Northeast 520 598 31,000  Level Gander Center
11:22PM 49.4833 -62.6667 36° Northeast 520 598 31,000  Level Gander Center
11:23PM 49.5833 -62.5167 44° Northeast 510 587 31,000  Level Gander Center
11:24PM 49.6833 -62.4000 37° Northeast 510 587 31,000  Level Gander Center
11:25PM 49.7833 -62.2333 47° Northeast 510 587 31,000  Level Gander Center
11:26PM 49.8833 -62.0833 44° Northeast 520 598 31,000  Level Gander Center
11:27PM 50.0000 -61.9333 40° Northeast 510 587 31,000  Level Gander Center
11:28PM 50.1000 -61.7833 44° Northeast 520 598 31,000  Level Gander Center
11:29PM 50.2167 -61.6167 42° Northeast 510 587 31,000  Level Gander Center
11:30PM 50.3167 -61.4667 44° Northeast 520 598 31,000  Level Gander Center
11:31PM 50.4167 -61.3333 40° Northeast 510 587 31,000 -420 Level Gander Center
11:32PM 50.5333 -61.1833 39° Northeast 510 587 30,200 -1,020 Descending Gander Center
11:33PM 50.6333 -61.0167 47° Northeast 520 598 29,000 -600 Descending Gander Center
11:34PM 50.7333 -60.8667 43° Northeast 510 587 29,000  Level Gander Center
11:35PM 50.8500 -60.7000 42° Northeast 510 587 29,000  Level Gander Center
11:36PM 50.9500 -60.5667 40° Northeast 510 587 29,000  Level Gander Center
11:37PM 51.0500 -60.4000 46° Northeast 510 587 29,000  Level Gander Center
11:38PM 51.1667 -60.2500 39° Northeast 520 598 29,000  Level Gander Center
11:39PM 51.2667 -60.0833 46° Northeast 520 598 29,000  Level Gander Center
11:40PM 51.3833 -59.9167 42° Northeast 530 610 29,000  Level Gander Center
11:41PM 51.4833 -59.7500 46° Northeast 530 610 29,000  Level Gander Center
11:42PM 51.5833 -59.5667 49° Northeast 530 610 29,000  Level Gander Center
11:43PM 51.6667 -59.4000 51° Northeast 530 610 29,000  Level Gander Center
11:44PM 51.7500 -59.2000 56° Northeast 530 610 29,000  Level Gander Center
11:45PM 51.8500 -59.0333 46° Northeast 530 610 29,000  Level Gander Center
11:46PM 51.9500 -58.8333 51° Northeast 530 610 29,000  Level Gander Center
11:47PM 52.0500 -58.6500 48° Northeast 540 621 29,000  Level Gander Center
11:48PM 52.1500 -58.4833 46° Northeast 540 621 29,000  Level Gander Center
11:49PM 52.2333 -58.2833 56° Northeast 540 621 29,000  Level Gander Center
11:50PM 52.3333 -58.1000 48° Northeast 540 621 29,000  Level Gander Center
11:51PM 52.4500 -57.9000 46° Northeast 540 621 29,000  Level Gander Center
11:52PM 52.5167 -57.7167 59° Northeast 540 621 29,000  Level Gander Center
11:53PM 52.6167 -57.5333 48° Northeast 540 621 29,000  Level Gander Center
11:54PM 52.7333 -57.3333 46° Northeast 550 633 29,000  Level Gander Center
11:55PM 52.8167 -57.1333 55° Northeast 550 633 29,000  Level Gander Center
11:56PM 52.9167 -56.9333 50° Northeast 550 633 29,000  Level Gander Center
11:57PM 53.0167 -56.7500 48° Northeast 550 633 29,000  Level Gander Center
11:58PM 53.1000 -56.5500 55° Northeast 550 633 29,000  Level Gander Center
11:59PM 53.2167 -56.3333 48° Northeast 550 633 29,000 420 Level Gander Center
12:00AM 53.3000 -56.1333 55° Northeast 550 633 29,900 900 Climbing Gander Center
12:01AM 53.4000 -55.9167 52° Northeast 560 644 30,900 960 Climbing Gander Center
12:02AM 53.4833 -55.7167 55° Northeast 560 644 31,900 960 Climbing Gander Center
12:03AM 53.6000 -55.5333 43° Northeast 560 644 32,900 900 Climbing Gander Center
12:04AM 53.6833 -55.3167 57° Northeast 560 644 33,800 540 Climbing Gander Center
12:05AM 53.7667 -55.1167 55° Northeast 560 644 34,000 60 Climbing Gander Center
12:06AM 53.8667 -54.9000 52° Northeast 560 644 34,000  Level Gander Center
12:07AM 53.9333 -54.6667 64° Northeast 550 633 34,000  Level Gander Center
12:08AM 53.9667 -54.4500 75° East 540 621 34,000  Level Gander Center
12:09AM 54.0333 -54.2167 64° Northeast 540 621 34,000  Level Gander Center
12:10AM 54.1000 -53.9833 64° Northeast 550 633 34,000  Level Gander Center
12:11AM 54.1500 -53.7333 71° East 550 633 34,000  Level Gander Center
12:12AM 54.2000 -53.5000 70° East 550 633 34,000  Level Gander Center
12:13AM 54.2667 -53.2500 65° Northeast 550 633 34,000  Level Gander Center
12:14AM 54.3167 -52.9833 72° East 550 633 34,000  Level Gander Center
12:15AM 54.3667 -52.7500 70° East 550 633 34,000  Level Gander Center
12:16AM 54.4333 -52.5000 65° Northeast 550 633 34,000  Level Gander Center
12:17AM 54.4833 -52.2667 70° East 550 633 34,000  Level Gander Center
12:18AM 54.5333 -52.0167 71° East 550 633 34,000  Level Gander Center
12:20AM 54.6177 -51.6658 67° East  Level FlightAware Approximate
12:27AM 54.9823 -50.0803 68° East  Level FlightAware Approximate
12:29AM 55.0555 -49.6068 76° East  Level FlightAware Approximate
12:30AM 55.0885 -49.3682 76° East  Level FlightAware Approximate
12:31AM 55.1210 -49.1292 77° East  Level FlightAware Approximate
12:32AM 55.1525 -48.8945 77° East  Level FlightAware Approximate
12:33AM 55.1834 -48.6595 77° East  Level FlightAware Approximate
12:34AM 55.2140 -48.4241 77° East  Level FlightAware Approximate
12:35AM 55.2440 -48.1883 77° East  Level FlightAware Approximate
12:36AM 55.2737 -47.9522 77° East  Level FlightAware Approximate
12:37AM 55.3028 -47.7157 78° East  Level FlightAware Approximate
12:38AM 55.3315 -47.4789 78° East  Level FlightAware Approximate
12:39AM 55.3598 -47.2417 78° East  Level FlightAware Approximate
12:40AM 55.3866 -47.0039 79° East  Level FlightAware Approximate
12:41AM 55.4127 -46.7657 79° East  Level FlightAware Approximate
12:42AM 55.4383 -46.5271 79° East  Level FlightAware Approximate
12:43AM 55.4635 -46.2882 79° East  Level FlightAware Approximate
12:44AM 55.4882 -46.0491 80° East  Level FlightAware Approximate
12:45AM 55.5124 -45.8096 80° East  Level FlightAware Approximate
12:46AM 55.5378 -45.5704 79° East  Level FlightAware Approximate
12:47AM 55.5631 -45.3310 79° East  Level FlightAware Approximate
12:48AM 55.5880 -45.0913 80° East  Level FlightAware Approximate
12:49AM 55.6124 -44.8512 80° East  Level FlightAware Approximate
12:50AM 55.6363 -44.6109 80° East  Level FlightAware Approximate
12:51AM 55.6597 -44.3703 80° East  Level FlightAware Approximate
12:52AM 55.6827 -44.1294 80° East  Level FlightAware Approximate
12:53AM 55.7052 -43.8882 81° East  Level FlightAware Approximate
12:54AM 55.7272 -43.6468 81° East  Level FlightAware Approximate
12:55AM 55.7487 -43.4051 81° East  Level FlightAware Approximate
12:56AM 55.7698 -43.1631 81° East  Level FlightAware Approximate
12:57AM 55.7904 -42.9208 81° East  Level FlightAware Approximate
12:58AM 55.8106 -42.6783 82° East  Level FlightAware Approximate
12:59AM 55.8302 -42.4356 82° East  Level FlightAware Approximate
01:00AM 55.8494 -42.1926 82° East  Level FlightAware Approximate
01:01AM 55.8681 -41.9494 82° East  Level FlightAware Approximate
01:02AM 55.8863 -41.7060 82° East  Level FlightAware Approximate
01:03AM 55.9040 -41.4623 83° East  Level FlightAware Approximate
01:04AM 55.9213 -41.2184 83° East  Level FlightAware Approximate
01:05AM 55.9380 -40.9743 83° East  Level FlightAware Approximate
01:06AM 55.9543 -40.7299 83° East  Level FlightAware Approximate
01:07AM 55.9701 -40.4854 83° East  Level FlightAware Approximate
01:08AM 55.9854 -40.2407 84° East  Level FlightAware Approximate
01:09AM 56.0002 -39.9958 86° East  Level FlightAware Approximate
01:10AM 56.0099 -39.7499 86° East  Level FlightAware Approximate
01:11AM 56.0191 -39.5040 86° East  Level FlightAware Approximate
01:12AM 56.0279 -39.2580 86° East  Level FlightAware Approximate
01:13AM 56.0361 -39.0118 86° East  Level FlightAware Approximate
01:14AM 56.0439 -38.7656 87° East  Level FlightAware Approximate
01:15AM 56.0511 -38.5192 87° East  Level FlightAware Approximate
01:16AM 56.0579 -38.2728 87° East  Level FlightAware Approximate
01:17AM 56.0642 -38.0263 87° East  Level FlightAware Approximate
01:18AM 56.0700 -37.7797 87° East  Level FlightAware Approximate
01:19AM 56.0753 -37.5330 88° East  Level FlightAware Approximate
01:20AM 56.0801 -37.2863 88° East  Level FlightAware Approximate
01:21AM 56.0844 -37.0395 88° East  Level FlightAware Approximate
01:22AM 56.0882 -36.7926 88° East  Level FlightAware Approximate
01:23AM 56.0915 -36.5457 89° East  Level FlightAware Approximate
01:24AM 56.0944 -36.2988 89° East  Level FlightAware Approximate
01:25AM 56.0967 -36.0518 89° East  Level FlightAware Approximate
01:26AM 56.0986 -35.8049 89° East  Level FlightAware Approximate
01:27AM 56.0999 -35.5578 89° East  Level FlightAware Approximate
01:28AM 56.1008 -35.3108 90° East  Level FlightAware Approximate
01:29AM 56.1012 -35.0638 90° East  Level FlightAware Approximate
01:30AM 56.1011 -34.8167 90° East  Level FlightAware Approximate
01:31AM 56.1004 -34.5697 90° East  Level FlightAware Approximate
01:32AM 56.0993 -34.3227 90° East  Level FlightAware Approximate
01:33AM 56.0977 -34.0757 91° East  Level FlightAware Approximate
01:34AM 56.0956 -33.8287 91° East  Level FlightAware Approximate
01:35AM 56.0931 -33.5818 91° East  Level FlightAware Approximate
01:36AM 56.0900 -33.3349 91° East  Level FlightAware Approximate
01:37AM 56.0864 -33.0880 91° East  Level FlightAware Approximate
01:38AM 56.0824 -32.8412 92° East  Level FlightAware Approximate
01:39AM 56.0778 -32.5944 92° East  Level FlightAware Approximate
01:40AM 56.0728 -32.3477 92° East  Level FlightAware Approximate
01:41AM 56.0672 -32.1011 92° East  Level FlightAware Approximate
01:42AM 56.0612 -31.8545 92° East  Level FlightAware Approximate
01:43AM 56.0546 -31.6051 93° East  Level FlightAware Approximate
01:44AM 56.0475 -31.3558 93° East  Level FlightAware Approximate
01:45AM 56.0399 -31.1066 93° East  Level FlightAware Approximate
01:46AM 56.0318 -30.8576 93° East  Level FlightAware Approximate
01:47AM 56.0232 -30.6086 93° East  Level FlightAware Approximate
01:48AM 56.0141 -30.3622 94° East  Level FlightAware Approximate
01:49AM 56.0047 -30.1159 94° East  Level FlightAware Approximate
01:50AM 55.9925 -29.8701 96° East  Level FlightAware Approximate
01:51AM 55.9779 -29.6248 96° East  Level FlightAware Approximate
01:52AM 55.9628 -29.3797 96° East  Level FlightAware Approximate
01:53AM 55.9472 -29.1347 96° East  Level FlightAware Approximate
01:54AM 55.9311 -28.8900 97° East  Level FlightAware Approximate
01:55AM 55.9146 -28.6455 97° East  Level FlightAware Approximate
01:56AM 55.8976 -28.4011 97° East  Level FlightAware Approximate
01:57AM 55.8801 -28.1570 97° East  Level FlightAware Approximate
01:58AM 55.8621 -27.9132 97° East  Level FlightAware Approximate
01:59AM 55.8436 -27.6695 98° East  Level FlightAware Approximate
02:00AM 55.8247 -27.4261 98° East  Level FlightAware Approximate
02:01AM 55.8052 -27.1829 98° East  Level FlightAware Approximate
02:02AM 55.7853 -26.9400 98° East  Level FlightAware Approximate
02:03AM 55.7649 -26.6973 98° East  Level FlightAware Approximate
02:04AM 55.7440 -26.4549 99° East  Level FlightAware Approximate
02:05AM 55.7227 -26.2127 99° East  Level FlightAware Approximate
02:06AM 55.7009 -25.9708 99° East  Level FlightAware Approximate
02:07AM 55.6786 -25.7292 99° East  Level FlightAware Approximate
02:08AM 55.6558 -25.4879 99° East  Level FlightAware Approximate
02:09AM 55.6326 -25.2468 100° East  Level FlightAware Approximate
02:10AM 55.6088 -25.0061 100° East  Level FlightAware Approximate
02:11AM 55.5847 -24.7656 100° East  Level FlightAware Approximate
02:12AM 55.5600 -24.5254 100° East  Level FlightAware Approximate
02:13AM 55.5349 -24.2855 100° East  Level FlightAware Approximate
02:14AM 55.5093 -24.0460 101° East  Level FlightAware Approximate
02:15AM 55.4832 -23.8067 101° East  Level FlightAware Approximate
02:16AM 55.4567 -23.5678 101° East  Level FlightAware Approximate
02:17AM 55.4297 -23.3292 101° East  Level FlightAware Approximate
02:18AM 55.4022 -23.0909 101° East  Level FlightAware Approximate
02:19AM 55.3743 -22.8530 102° East  Level FlightAware Approximate
02:20AM 55.3459 -22.6154 102° East  Level FlightAware Approximate
02:21AM 55.3171 -22.3781 102° East  Level FlightAware Approximate
02:22AM 55.2878 -22.1412 102° East  Level FlightAware Approximate
02:23AM 55.2580 -21.9046 102° East  Level FlightAware Approximate
02:24AM 55.2278 -21.6684 103° East  Level FlightAware Approximate
02:25AM 55.1972 -21.4326 103° East  Level FlightAware Approximate
02:26AM 55.1660 -21.1971 103° East  Level FlightAware Approximate
02:27AM 55.1345 -20.9620 103° East  Level FlightAware Approximate
02:28AM 55.1024 -20.7273 103° East  Level FlightAware Approximate
02:29AM 55.0700 -20.4929 104° East  Level FlightAware Approximate
02:30AM 55.0370 -20.2590 104° East  Level FlightAware Approximate
02:31AM 55.0037 -20.0254 104° East  Level FlightAware Approximate
02:32AM 54.9742 -19.7904 102° East  Level FlightAware Approximate
02:33AM 54.9449 -19.5555 102° East  Level FlightAware Approximate
02:34AM 54.9151 -19.3210 102° East  Level FlightAware Approximate
02:35AM 54.8848 -19.0868 103° East  Level FlightAware Approximate
02:36AM 54.8541 -18.8530 103° East  Level FlightAware Approximate
02:37AM 54.8229 -18.6196 103° East  Level FlightAware Approximate
02:38AM 54.7913 -18.3865 103° East  Level FlightAware Approximate
02:39AM 54.7593 -18.1537 103° East  Level FlightAware Approximate
02:40AM 54.7268 -17.9214 104° East  Level FlightAware Approximate
02:41AM 54.6938 -17.6894 104° East  Level FlightAware Approximate
02:42AM 54.6604 -17.4578 104° East  Level FlightAware Approximate
02:43AM 54.6266 -17.2266 104° East  Level FlightAware Approximate
02:44AM 54.5924 -16.9957 104° East  Level FlightAware Approximate
02:45AM 54.5577 -16.7653 104° East  Level FlightAware Approximate
02:46AM 54.5225 -16.5352 105° East  Level FlightAware Approximate
02:47AM 54.4869 -16.3056 105° East  Level FlightAware Approximate
02:48AM 54.4509 -16.0763 105° East  Level FlightAware Approximate
02:49AM 54.4145 -15.8475 105° East  Level FlightAware Approximate
02:50AM 54.3776 -15.6191 105° East  Level FlightAware Approximate
02:51AM 54.3403 -15.3911 106° East  Level FlightAware Approximate
02:52AM 54.3026 -15.1635 106° East  Level FlightAware Approximate
02:53AM 54.2644 -14.9363 106° East  Level FlightAware Approximate
02:54AM 54.2258 -14.7095 106° East  Level FlightAware Approximate
02:55AM 54.1868 -14.4832 106° East  Level FlightAware Approximate
02:55AM 53.9150 -14.4480 107° East 447 514 34,000  Level FlightAware
02:56AM 54.1475 -14.2580 107° East  Level FlightAware Approximate
02:56AM 53.8950 -14.3190 105° East 448 516 34,000  Level FlightAware
02:57AM 53.8730 -14.1800 105° East 448 516 34,000  Level FlightAware
02:57AM 53.8540 -14.0680 106° East 449 517 34,000  Level FlightAware
02:58AM 53.8320 -13.9280 105° East 449 517 34,000  Level FlightAware
02:58AM 53.8120 -13.8070 106° East 450 518 34,000  Level FlightAware
02:59AM 53.7930 -13.6800 104° East 450 518 34,000  Level FlightAware
03:00AM 53.7650 -13.5130 106° East 449 517 34,000  Level FlightAware
03:00AM 53.7500 -13.4090 104° East 449 517 34,000  Level FlightAware
03:01AM 53.7340 -13.3020 104° East 449 517 34,000  Level FlightAware
03:02AM 53.7010 -13.1360 109° East 449 517 34,000  Level FlightAware
03:04AM 53.6449 -12.7250 103° East  Level Estimated
03:05AM 53.6134 -12.4992 103° East  Level Estimated
03:06AM 53.5815 -12.2737 103° East  Level Estimated
03:07AM 53.5491 -12.0486 104° East  Level Estimated
03:08AM 53.5163 -11.8238 104° East  Level Estimated
03:09AM 53.4831 -11.5994 104° East  Level Estimated
03:09AM 53.4540 -11.7400 104° East 457 526 34,000  Level FlightAware
03:09AM 53.4230 -11.5670 107° East 455 524 34,000  Level FlightAware
03:10AM 53.4010 -11.4490 107° East 455 524 34,000  Level FlightAware
03:11AM 53.3790 -11.3300 107° East 456 525 34,000  Level FlightAware
03:11AM 53.3550 -11.2050 108° East 456 525 34,000  Level FlightAware
03:12AM 53.3330 -11.0870 107° East 457 526 34,000  Level FlightAware
03:12AM 53.3100 -10.9680 108° East 458 527 34,000  Level FlightAware
03:13AM 53.2880 -10.8530 108° East 459 528 34,000  Level FlightAware
03:14AM 53.2650 -10.7300 107° East 460 529 34,000  Level FlightAware
03:14AM 53.2420 -10.6150 108° East 464 534 34,000  Level FlightAware
03:15AM 53.2230 -10.5130 107° East 465 535 34,000  Level FlightAware
03:15AM 53.1960 -10.3760 108° East 467 537 34,000  Level FlightAware
03:16AM 53.1710 -10.2530 109° East 467 537 34,000  Level FlightAware
03:16AM 53.1510 -10.1510 108° East 468 539 34,000  Level FlightAware
03:17AM 53.1200 -9.9930 108° East 470 541 34,000 360 Level FlightAware
03:18AM 53.0890 -9.8400 109° East 468 539 34,600 660 Climbing FlightAware
03:19AM 53.0610 -9.7040 109° East 467 537 35,000 300 Climbing FlightAware
03:19AM 53.0360 -9.5810 109° East 468 539 35,000  Level FlightAware
03:20AM 53.0140 -9.4760 109° East 468 539 35,000  Level FlightAware
03:20AM 52.9890 -9.3570 109° East 466 536 35,000  Level FlightAware
03:21AM 52.9640 -9.2340 109° East 467 537 35,000  Level FlightAware
03:22AM 52.9310 -9.0780 109° East 469 540 35,000  Level FlightAware
03:22AM 52.9100 -8.9790 109° East 470 541 35,000  Level FlightAware
03:23AM 52.8810 -8.8390 109° East 472 543 35,000  Level FlightAware
03:23AM 52.8520 -8.7050 109° East 477 549 35,000  Level FlightAware
03:23AM 52.8497 -8.6934 109° East 496 571 35,000  Level FlightAware UK
03:24AM 52.8277 -8.5904 109° East 498 573 35,000  Level FlightAware UK
03:24AM 52.8290 -8.5950 109° East 477 549 35,000  Level FlightAware
03:24AM 52.8054 -8.4877 109° East 498 573 35,000  Level FlightAware UK
03:25AM 52.7990 -8.4610 109° East 478 550 35,000  Level FlightAware
03:25AM 52.7700 -8.3240 109° East 480 552 35,000  Level FlightAware
03:26AM 52.7430 -8.2000 110° East 481 554 35,000  Level FlightAware
03:26AM 52.7200 -8.0960 110° East 483 556 35,000  Level FlightAware
03:26AM 52.7155 -8.0696 110° East 496 571 35,000  Level FlightAware UK
03:27AM 52.6926 -7.9664 110° East 496 571 35,000  Level FlightAware UK
03:27AM 52.6890 -7.9580 110° East 485 558 35,000  Level FlightAware
03:28AM 52.6630 -7.8400 110° East 484 557 35,000  Level FlightAware
03:28AM 52.6380 -7.7290 110° East 484 557 35,000  Level FlightAware
03:29AM 52.6100 -7.6040 110° East 485 558 35,000  Level FlightAware
03:29AM 52.5753 -7.4451 110° East 500 575 35,000  Level FlightAware UK
03:30AM 52.5720 -7.4360 110° East 488 562 35,000  Level FlightAware
03:30AM 52.5466 -7.3200 110° East 500 575 35,000  Level FlightAware UK
03:30AM 52.5460 -7.3210 110° East 491 565 35,000  Level FlightAware
03:31AM 52.5225 -7.2143 110° East 498 573 35,000  Level FlightAware UK
03:31AM 52.5200 -7.2090 110° East 491 565 35,000  Level FlightAware
03:31AM 52.4900 -7.0810 111° Southeast 492 566 35,000  Level FlightAware
03:32AM 52.4620 -6.9590 111° Southeast 492 566 35,000  Level FlightAware
03:32AM 52.4330 -6.8370 111° Southeast 493 567 35,000  Level FlightAware
03:33AM 52.4060 -6.7180 110° East 494 568 35,000  Level FlightAware
03:34AM 52.3760 -6.5880 110° East 498 573 35,000  Level FlightAware UK
03:34AM 52.3760 -6.5930 110° East 496 571 35,000  Level FlightAware
03:34AM 52.3410 -6.4415 110° East 498 573 35,000  Level FlightAware UK
03:34AM 52.3410 -6.4460 110° East 495 570 35,000  Level FlightAware
03:35AM 52.3158 -6.3369 110° East 500 575 35,000  Level FlightAware UK
03:35AM 52.3100 -6.3170 110° East 496 571 35,000  Level FlightAware
03:35AM 52.2840 -6.2090 111° Southeast 496 571 35,000  Level FlightAware
03:36AM 52.2530 -6.0800 111° Southeast 496 571 35,000  Level FlightAware
03:36AM 52.2300 -5.9870 112° Southeast 496 571 35,000  Level FlightAware
03:37AM 52.1900 -5.8240 112° Southeast 496 571 35,000  Level FlightAware
03:38AM 52.1630 -5.7130 112° Southeast 495 570 35,000  Level FlightAware
03:38AM 52.1330 -5.5890 111° Southeast 495 570 35,000  Level FlightAware
03:39AM 52.1050 -5.4660 110° East 499 574 35,000  Level FlightAware
03:40AM 52.0840 -5.3350 105° East 506 582 35,000  Level FlightAware
03:40AM 52.0692 -5.2167 105° East 498 573 35,000  Level FlightAware UK
03:40AM 52.0680 -5.2120 105° East 506 582 35,000  Level FlightAware
03:41AM 52.0520 -5.0820 101° East 507 583 35,000  Level FlightAware
03:41AM 52.0340 -4.9440 102° East 508 585 35,000  Level FlightAware
03:42AM 52.0150 -4.8140 103° East 505 581 35,000  Level FlightAware
03:42AM 51.9940 -4.6980 106° East 505 581 35,000  Level FlightAware
03:43AM 51.9716 -4.5764 106° East 500 575 35,000  Level FlightAware UK
03:43AM 51.9690 -4.5640 106° East 505 581 35,000  Level FlightAware
03:44AM 51.9484 -4.4456 106° East 500 575 35,000  Level FlightAware UK
03:44AM 51.9460 -4.4340 106° East 505 581 35,000  Level FlightAware
03:44AM 51.9249 -4.3152 106° East 498 573 35,000  Level FlightAware UK
03:44AM 51.9240 -4.3100 106° East 504 580 35,000  Level FlightAware
03:45AM 51.9014 -4.1842 106° East 498 573 35,000  Level FlightAware UK
03:45AM 51.9000 -4.1800 106° East 503 579 35,000  Level FlightAware
03:45AM 51.8770 -4.0540 106° East 504 580 35,000  Level FlightAware
03:46AM 51.8560 -3.9380 106° East 504 580 35,000  Level FlightAware
03:47AM 51.8270 -3.7790 106° East 505 581 35,000  Level FlightAware
03:47AM 51.8030 -3.6490 107° East 505 581 35,000  Level FlightAware
03:48AM 51.7820 -3.5340 106° East 506 582 35,000  Level FlightAware
03:48AM 51.7620 -3.4010 104° East 511 588 35,000  Level FlightAware
03:49AM 51.7440 -3.2550 101° East 513 590 35,000  Level FlightAware
03:50AM 51.7300 -3.1350 101° East 513 590 35,000  Level FlightAware
03:50AM 51.7140 -3.0030 101° East 513 590 35,000  Level FlightAware
03:51AM 51.6980 -2.8650 101° East 513 590 35,000  Level FlightAware
03:51AM 51.6830 -2.7290 100° East 514 592 35,000  Level FlightAware
03:52AM 51.6710 -2.6080 99° East 515 593 35,000  Level FlightAware
03:52AM 51.6600 -2.4900 99° East 516 594 35,000  Level FlightAware
03:53AM 51.6469 -2.3361 99° East 500 575 35,000  Level FlightAware UK
03:53AM 51.6470 -2.3380 99° East 517 595 35,000  Level FlightAware
03:54AM 51.6340 -2.1940 98° East 515 593 35,000  Level FlightAware
03:54AM 51.6230 -2.0730 98° East 515 593 35,000  Level FlightAware
03:55AM 51.6100 -1.9290 98° East 515 593 35,000  Level FlightAware
03:56AM 51.5970 -1.7840 98° East 515 593 35,000  Level FlightAware
03:56AM 51.5860 -1.6640 98° East 515 593 35,000  Level FlightAware
03:57AM 51.5740 -1.5369 98° East 496 571 35,000  Level FlightAware UK
03:57AM 51.5710 -1.5080 98° East 515 593 35,000  Level FlightAware
03:57AM 51.5560 -1.3490 99° East 517 595 35,000  Level FlightAware
03:58AM 51.5440 -1.2280 99° East 517 595 35,000  Level FlightAware
03:59AM 51.5310 -1.1000 99° East 518 596 35,000  Level FlightAware
03:59AM 51.5182 -0.9677 99° East 496 571 35,000  Level FlightAware UK
03:59AM 51.5170 -0.9630 99° East 517 595 35,000  Level FlightAware
04:00AM 51.5040 -0.8270 99° East 518 596 35,000  Level FlightAware
04:00AM 51.4930 -0.7200 99° East 519 597 35,000  Level FlightAware
04:01AM 51.4770 -0.5650 99° East 520 598 35,000  Level FlightAware
04:01AM 51.4650 -0.4510 100° East 520 598 35,000  Level FlightAware
04:02AM 51.4499 -0.3064 100° East 498 573 35,000  Level FlightAware UK
04:02AM 51.4470 -0.2800 100° East 519 597 35,000  Level FlightAware
04:03AM 51.4327 -0.1470 100° East 500 575 35,000  Level FlightAware UK
04:03AM 51.4310 -0.1360 100° East 519 597 35,000  Level FlightAware
04:03AM 51.4180 -0.0150 100° East 518 596 35,000  Level FlightAware
04:04AM 51.4028 0.1263 100° East 496 571 35,000  Level FlightAware UK
04:04AM 51.4030 0.1210 100° East 518 596 35,000  Level FlightAware
04:05AM 51.3890 0.2530 100° East 517 595 35,000  Level FlightAware
04:05AM 51.3710 0.4120 100° East 519 597 35,000  Level FlightAware
04:06AM 51.3550 0.5470 101° East 519 597 35,000  Level FlightAware
04:06AM 51.3400 0.6750 101° East 519 597 35,000  Level FlightAware
04:07AM 51.3240 0.8150 100° East 519 597 35,000  Level FlightAware
04:08AM 51.3100 0.9400 100° East 520 598 35,000  Level FlightAware
04:08AM 51.2930 1.0760 101° East 522 601 35,000  Level FlightAware
04:09AM 51.2770 1.2110 101° East 523 602 35,000  Level FlightAware
04:09AM 51.2600 1.3400 102° East 523 602 35,000  Level FlightAware
04:10AM 51.2450 1.4650 101° East 523 602 35,000  Level FlightAware
04:10AM 51.2290 1.5860 102° East 524 603 35,000  Level FlightAware
04:11AM 51.2070 1.7560 102° East 524 603 35,000  Level FlightAware
04:12AM 51.1920 1.8730 102° East 525 604 35,000  Level FlightAware
04:12AM 51.1740 2.0090 102° East 525 604 35,000 300 Level FlightAware
04:13AM 51.1550 2.1530 102° East 526 605 35,400 900 Climbing FlightAware
04:13AM 51.1370 2.2850 102° East 524 603 36,100 1,080 Climbing FlightAware
04:14AM 51.1200 2.4130 102° East 523 602 36,700 780 Climbing FlightAware
04:15AM 51.1020 2.5440 102° East 523 602 37,000 240 Climbing FlightAware
04:15AM 51.0860 2.6650 102° East 524 603 37,000  Level FlightAware
04:16AM 51.0670 2.8000 103° East 524 603 37,000  Level FlightAware
04:16AM 51.0480 2.9350 103° East 524 603 37,000  Level FlightAware
04:17AM 51.0310 3.0550 103° East 524 603 37,000  Level FlightAware
04:17AM 51.0150 3.1640 103° East 525 604 37,000  Level FlightAware
04:18AM 50.9950 3.3060 103° East 525 604 37,000  Level FlightAware
04:19AM 50.9720 3.4680 103° East 525 604 37,000  Level FlightAware
04:19AM 50.9550 3.5840 103° East 524 603 37,000  Level FlightAware
04:20AM 50.9370 3.7070 103° East 524 603 37,000  Level FlightAware
04:20AM 50.9160 3.8490 103° East 523 602 37,000  Level FlightAware
04:20AM 50.9142 3.8599 103° East 492 566 37,000  Level FlightAware UK
04:21AM 50.8950 3.9870 104° East 525 604 37,000  Level FlightAware
04:22AM 50.8780 4.0950 104° East 525 604 37,000  Level FlightAware
04:22AM 50.8602 4.2180 104° East 492 566 37,000  Level FlightAware UK
04:22AM 50.8560 4.2410 104° East 527 606 37,000  Level FlightAware
04:23AM 50.8340 4.3830 104° East 528 608 37,000  Level FlightAware
04:23AM 50.8160 4.5030 103° East 528 608 37,000  Level FlightAware
04:24AM 50.7950 4.6380 104° East 528 608 37,000  Level FlightAware
04:24AM 50.7750 4.7610 104° East 529 609 37,000  Level FlightAware
04:25AM 50.7530 4.9000 104° East 530 610 37,000  Level FlightAware
04:26AM 50.7310 5.0380 104° East 531 611 37,000  Level FlightAware
04:26AM 50.7110 5.1620 104° East 531 611 37,000  Level FlightAware
04:27AM 50.6910 5.2860 104° East 532 612 37,000  Level FlightAware
04:27AM 50.6690 5.4210 104° East 533 613 37,000  Level FlightAware
04:28AM 50.6460 5.5600 105° East 534 615 37,000  Level FlightAware
04:29AM 50.6250 5.6880 104° East 534 615 37,000  Level FlightAware
04:29AM 50.6020 5.8230 105° East 534 615 37,000  Level FlightAware
04:30AM 50.5800 5.9550 105° East 535 616 37,000  Level FlightAware
04:30AM 50.5650 6.0810 101° East 537 618 37,000  Level FlightAware
04:31AM 50.5500 6.2190 100° East 537 618 37,000  Level FlightAware
04:32AM 50.5350 6.3540 100° East 538 619 37,000  Level FlightAware
04:32AM 50.5190 6.4880 101° East 537 618 37,000  Level FlightAware
04:33AM 50.5030 6.6390 99° East 538 619 37,000  Level FlightAware
04:33AM 50.4900 6.7620 99° East 538 619 37,000  Level FlightAware
04:34AM 50.4740 6.9120 99° East 541 623 37,000  Level FlightAware
04:35AM 50.4570 7.0550 101° East 541 623 37,000  Level FlightAware
04:35AM 50.4420 7.1940 100° East 541 623 37,000  Level FlightAware
04:36AM 50.4250 7.3360 101° East 541 623 37,000  Level FlightAware
04:36AM 50.4120 7.4520 100° East 541 623 37,000  Level FlightAware
04:37AM 50.3950 7.5950 101° East 542 624 37,000  Level FlightAware
04:37AM 50.3790 7.7340 100° East 543 625 37,000  Level FlightAware
04:38AM 50.3630 7.8650 101° East 543 625 37,000  Level FlightAware
04:39AM 50.3500 7.9730 101° East 543 625 37,000  Level FlightAware
04:39AM 50.3310 8.1310 101° East 545 627 37,000  Level FlightAware
04:40AM 50.3170 8.2470 101° East 545 627 37,000  Level FlightAware
04:40AM 50.2960 8.4170 101° East 545 627 37,000  Level FlightAware
04:41AM 50.2810 8.5330 101° East 546 628 37,000  Level FlightAware
04:42AM 50.2640 8.6720 101° East 546 628 37,000  Level FlightAware
04:42AM 50.2450 8.8150 102° East 547 629 37,000  Level FlightAware
04:43AM 50.2280 8.9460 101° East 547 629 37,000  Level FlightAware
04:43AM 50.2080 9.0970 102° East 547 629 37,000  Level FlightAware
04:44AM 50.1910 9.2280 101° East 548 631 37,000  Level FlightAware
04:45AM 50.1720 9.3710 102° East 548 631 37,000  Level FlightAware
04:45AM 50.1510 9.5250 102° East 548 631 37,000  Level FlightAware
04:46AM 50.1350 9.6410 102° East 547 629 37,000  Level FlightAware
04:46AM 50.1150 9.7790 103° East 547 629 37,000  Level FlightAware
04:47AM 50.0950 9.9210 102° East 546 628 37,000  Level FlightAware
04:48AM 50.0760 10.0550 102° East 547 629 37,000  Level FlightAware
04:48AM 50.0570 10.1930 102° East 546 628 37,000  Level FlightAware
04:49AM 50.0390 10.3200 102° East 545 627 37,000  Level FlightAware
04:49AM 50.0220 10.4500 101° East 544 626 37,000  Level FlightAware
04:50AM 50.0050 10.5680 103° East 544 626 37,000  Level FlightAware
04:50AM 49.9840 10.7210 102° East 544 626 37,000  Level FlightAware
04:51AM 49.9660 10.8540 102° East 544 626 37,000  Level FlightAware
04:52AM 49.9450 10.9950 103° East 543 625 37,000  Level FlightAware
04:52AM 49.9270 11.1240 102° East 543 625 37,000  Level FlightAware
04:53AM 49.9070 11.2650 102° East 544 626 37,000  Level FlightAware
04:53AM 49.8880 11.3860 104° East 544 626 37,000  Level FlightAware
04:54AM 49.8700 11.5160 102° East 545 627 37,000  Level FlightAware
04:55AM 49.8490 11.6570 103° East 546 628 37,000  Level FlightAware
04:55AM 49.8310 11.7740 103° East 546 628 37,000  Level FlightAware
04:56AM 49.8090 11.9230 103° East 547 629 37,000  Level FlightAware
04:56AM 49.7880 12.0600 103° East 547 629 37,000  Level FlightAware
04:57AM 49.7700 12.1780 103° East 547 629 37,000  Level FlightAware
04:57AM 49.7480 12.3220 103° East 547 629 37,000  Level FlightAware
04:58AM 49.7260 12.4630 104° East 548 631 37,000  Level FlightAware
04:59AM 49.7080 12.5770 104° East 549 632 37,000  Level FlightAware
04:59AM 49.6860 12.7170 104° East 549 632 37,000  Level FlightAware
05:00AM 49.6640 12.8510 104° East 549 632 37,000  Level FlightAware
05:00AM 49.6420 12.9880 104° East 550 633 37,000  Level FlightAware
05:01AM 49.6230 13.1050 104° East 550 633 37,000  Level FlightAware
05:01AM 49.5990 13.2540 104° East 552 635 37,000  Level FlightAware
05:02AM 49.5760 13.3910 104° East 553 636 37,000  Level FlightAware
05:03AM 49.5550 13.5170 104° East 555 639 37,000  Level FlightAware
05:03AM 49.5330 13.6470 105° East 555 639 37,000  Level FlightAware
05:04AM 49.5090 13.7880 105° East 556 640 37,000  Level FlightAware
05:04AM 49.4880 13.9060 105° East 555 639 37,000  Level FlightAware
05:05AM 49.4610 14.0580 105° East 555 639 37,000  Level FlightAware
05:06AM 49.4370 14.1870 106° East 556 640 37,000  Level FlightAware
05:06AM 49.4160 14.3080 105° East 556 640 37,000  Level FlightAware
05:07AM 49.3940 14.4260 106° East 555 639 37,000  Level FlightAware
05:07AM 49.3640 14.5840 106° East 554 638 37,000  Level FlightAware
05:08AM 49.3440 14.6980 105° East 554 638 37,000  Level FlightAware
05:08AM 49.3150 14.8490 106° East 555 639 37,000  Level FlightAware
05:09AM 49.2910 14.9770 106° East 555 639 37,000  Level FlightAware
05:10AM 49.2640 15.1200 106° East 556 640 37,000  Level FlightAware
05:10AM 49.2410 15.2410 106° East 555 639 37,000  Level FlightAware
05:11AM 49.2150 15.3800 106° East 555 639 37,000  Level FlightAware
05:12AM 49.1870 15.5230 107° East 555 639 37,000  Level FlightAware
05:12AM 49.1620 15.6510 107° East 556 640 37,000  Level FlightAware
05:13AM 49.1330 15.7970 107° East 557 641 37,000  Level FlightAware
05:13AM 49.1060 15.9330 107° East 557 641 37,000  Level FlightAware
05:14AM 49.0830 16.0460 107° East 558 642 37,000  Level FlightAware
05:14AM 49.0560 16.1850 106° East 559 643 37,000  Level FlightAware
05:15AM 49.0280 16.3200 108° East 559 643 37,000  Level FlightAware
05:16AM 48.9990 16.4500 109° East 563 648 37,000  Level FlightAware
05:16AM 48.9640 16.5620 115° Southeast 565 650 37,000  Level FlightAware
05:17AM 48.9180 16.6960 118° Southeast 566 651 37,000  Level FlightAware
05:17AM 48.8730 16.8220 118° Southeast 567 652 37,000  Level FlightAware
05:18AM 48.8310 16.9410 118° Southeast 568 654 37,000  Level FlightAware
05:19AM 48.7890 17.0600 118° Southeast 568 654 37,000  Level FlightAware
05:19AM 48.7420 17.1930 118° Southeast 569 655 37,000  Level FlightAware
05:20AM 48.7010 17.3090 118° Southeast 568 654 37,000  Level FlightAware
05:20AM 48.6510 17.4260 123° Southeast 570 656 37,000  Level FlightAware
05:21AM 48.5900 17.5380 129° Southeast 570 656 37,000  Level FlightAware
05:21AM 48.5250 17.6470 132° Southeast 571 657 37,000  Level FlightAware
05:22AM 48.4700 17.7380 132° Southeast 571 657 37,000  Level FlightAware
05:23AM 48.4000 17.8510 133° Southeast 571 657 37,000  Level FlightAware
05:23AM 48.3410 17.9470 133° Southeast 571 657 37,000  Level FlightAware
05:24AM 48.2780 18.0480 133° Southeast 568 654 37,000  Level FlightAware
05:24AM 48.2160 18.1490 133° Southeast 568 654 37,000  Level FlightAware
05:25AM 48.1530 18.2470 134° Southeast 568 654 37,000  Level FlightAware
05:26AM 48.0910 18.3470 133° Southeast 567 652 37,000  Level FlightAware
05:26AM 48.0280 18.4470 133° Southeast 568 654 37,000  Level FlightAware
05:27AM 47.9650 18.5460 134° Southeast 568 654 37,000  Level FlightAware
05:27AM 47.9020 18.6460 133° Southeast 567 652 37,000  Level FlightAware
05:28AM 47.8370 18.7480 133° Southeast 562 647 37,000  Level FlightAware
05:28AM 47.7750 18.8440 134° Southeast 561 646 37,000  Level FlightAware
05:29AM 47.7120 18.9420 134° Southeast 563 648 37,000  Level FlightAware
05:30AM 47.6480 19.0440 133° Southeast 563 648 37,000  Level FlightAware
05:30AM 47.5940 19.1250 135° Southeast 563 648 37,000  Level FlightAware
05:31AM 47.5120 19.2520 134° Southeast 570 656 37,000  Level FlightAware
05:31AM 47.4560 19.3380 134° Southeast 570 656 37,000  Level FlightAware
05:32AM 47.3890 19.4390 134° Southeast 571 657 37,000  Level FlightAware
05:33AM 47.3250 19.5370 134° Southeast 570 656 37,000  Level FlightAware
05:33AM 47.2600 19.6370 134° Southeast 571 657 37,000  Level FlightAware
05:34AM 47.2010 19.7240 135° Southeast 573 659 37,000  Level FlightAware
05:34AM 47.1310 19.8300 134° Southeast 573 659 37,000  Level FlightAware
05:35AM 47.0630 19.9320 134° Southeast 572 658 37,000  Level FlightAware
05:36AM 46.9950 20.0350 134° Southeast 570 656 37,000  Level FlightAware
05:36AM 46.9340 20.1250 135° Southeast 569 655 37,000  Level FlightAware
05:37AM 46.8650 20.2270 135° Southeast 568 654 37,000  Level FlightAware
05:37AM 46.8070 20.3140 134° Southeast 567 652 37,000  Level FlightAware
05:38AM 46.7440 20.4060 135° Southeast 568 654 37,000  Level FlightAware
05:38AM 46.6740 20.5090 135° Southeast 567 652 37,000  Level FlightAware
05:39AM 46.6140 20.5960 135° Southeast 565 650 37,000  Level FlightAware
05:40AM 46.5460 20.6950 135° Southeast 564 649 37,000  Level FlightAware
05:40AM 46.4830 20.7860 135° Southeast 565 650 37,000  Level FlightAware
05:41AM 46.4140 20.8850 135° Southeast 565 650 37,000  Level FlightAware
05:41AM 46.3580 20.9680 134° Southeast 565 650 37,000  Level FlightAware
05:42AM 46.2950 21.0580 135° Southeast 565 650 37,000  Level FlightAware
05:42AM 46.2270 21.1440 139° Southeast 564 649 37,000  Level FlightAware
05:43AM 46.1460 21.2430 140° Southeast 564 649 37,000  Level FlightAware
05:44AM 46.0900 21.3100 140° Southeast 563 648 37,000  Level FlightAware
05:44AM 46.0060 21.4060 142° Southeast 563 648 37,000  Level FlightAware
05:45AM 45.9450 21.4750 142° Southeast 562 647 37,000  Level FlightAware
05:45AM 45.8630 21.5670 142° Southeast 561 646 37,000  Level FlightAware
05:46AM 45.8070 21.6310 141° Southeast 560 644 37,000  Level FlightAware
05:47AM 45.7200 21.7260 143° Southeast 559 643 37,000  Level FlightAware
05:47AM 45.6500 21.8030 142° Southeast 558 642 37,000  Level FlightAware
05:48AM 45.5820 21.8800 142° Southeast 557 641 37,000  Level FlightAware
05:48AM 45.5170 21.9500 143° Southeast 556 640 37,000  Level FlightAware
05:49AM 45.4300 22.0480 142° Southeast 555 639 37,000  Level FlightAware
05:50AM 45.3570 22.1260 143° Southeast 555 639 37,000  Level FlightAware
05:50AM 45.2990 22.1910 142° Southeast 555 639 37,000  Level FlightAware
05:51AM 45.2280 22.2690 142° Southeast 553 636 37,000  Level FlightAware
05:51AM 45.1520 22.3530 142° Southeast 551 634 37,000  Level FlightAware
05:52AM 45.0690 22.4410 143° Southeast 552 635 37,000  Level FlightAware
05:53AM 44.9910 22.5270 142° Southeast 552 635 37,000  Level FlightAware
05:53AM 44.9090 22.6150 143° Southeast 554 638 37,000  Level FlightAware
05:54AM 44.8490 22.6800 142° Southeast 553 636 37,000  Level FlightAware
05:54AM 44.7540 22.7830 142° Southeast 552 635 37,000  Level FlightAware
05:55AM 44.7080 22.8310 143° Southeast 553 636 37,000  Level FlightAware
05:56AM 44.6280 22.9150 143° Southeast 553 636 37,000  Level FlightAware
05:56AM 44.5590 22.9830 145° Southeast 555 639 37,000  Level FlightAware
05:57AM 44.4850 23.0410 151° Southeast 556 640 37,000  Level FlightAware
05:57AM 44.3800 23.1090 155° Southeast 553 636 37,000  Level FlightAware
05:58AM 44.2990 23.1610 155° Southeast 552 635 37,000  Level FlightAware
05:59AM 44.2240 23.2090 155° Southeast 551 634 37,000  Level FlightAware
05:59AM 44.1400 23.2610 156° South 551 634 37,000  Level FlightAware
06:00AM 44.0620 23.3130 154° Southeast 549 632 37,000  Level FlightAware
06:00AM 43.9630 23.3770 155° Southeast 548 631 37,000  Level FlightAware
06:01AM 43.8550 23.4460 155° Southeast 548 631 37,000  Level FlightAware
06:02AM 43.7300 23.5250 155° Southeast 546 628 37,000  Level FlightAware
06:03AM 43.6550 23.5740 155° Southeast 547 629 37,000  Level FlightAware
06:03AM 43.5850 23.6190 155° Southeast 547 629 37,000  Level FlightAware
06:04AM 43.4720 23.6740 161° South 525 604 37,000  Level FlightAware
06:05AM 43.3570 23.7050 169° South 540 621 37,000  Level FlightAware
06:05AM 43.2730 23.7290 168° South 539 620 37,000  Level FlightAware
06:06AM 43.1850 23.7490 171° South 539 620 37,000  Level FlightAware
06:06AM 43.1070 23.7670 170° South 538 619 37,000  Level FlightAware
06:07AM 43.0210 23.7870 170° South 537 618 37,000  Level FlightAware
06:08AM 42.9300 23.8080 170° South 538 619 37,000  Level FlightAware
06:08AM 42.8310 23.8320 170° South 538 619 37,000  Level FlightAware
06:09AM 42.7520 23.8500 171° South 539 620 37,000  Level FlightAware
06:10AM 42.6520 23.8740 170° South 539 620 37,000  Level FlightAware
06:10AM 42.5760 23.8920 170° South 539 620 37,000  Level FlightAware
06:11AM 42.4670 23.9160 171° South 538 619 37,000  Level FlightAware
06:12AM 42.3470 23.9430 171° South 539 620 37,000  Level FlightAware
06:12AM 42.2650 23.9610 171° South 537 618 37,000  Level FlightAware
06:13AM 42.1920 23.9780 170° South 534 615 37,000  Level FlightAware
06:13AM 42.1040 23.9980 170° South 535 616 37,000  Level FlightAware
06:14AM 42.0060 24.0190 171° South 535 616 37,000  Level FlightAware
06:14AM 41.9280 24.0370 170° South 533 613 37,000  Level FlightAware
06:15AM 41.9280 24.0370 170° South 532 612 37,000  Level FlightAware
06:16AM 41.8430 24.0570 170° South 532 612 37,000  Level FlightAware
06:16AM 41.7690 24.0740 170° South 532 612 37,000  Level FlightAware
06:17AM 41.5800 24.1170 170° South 535 616 37,000  Level FlightAware
06:17AM 41.4940 24.1570 161° South 536 617 37,000  Level FlightAware
06:18AM 41.4560 24.2010 139° Southeast 537 618 37,000  Level FlightAware
06:18AM 41.3970 24.2520 147° Southeast 537 618 37,000  Level FlightAware
06:19AM 41.3280 24.3170 145° Southeast 537 618 37,000  Level FlightAware
06:20AM 41.2660 24.3750 145° Southeast 537 618 37,000  Level FlightAware
06:20AM 41.1670 24.4570 148° Southeast 530 610 37,000  Level FlightAware
06:21AM 41.1040 24.5110 147° Southeast 530 610 37,000  Level FlightAware
06:22AM 40.9850 24.5700 159° South 533 613 37,000  Level FlightAware
06:22AM 40.9040 24.6210 155° Southeast 531 611 37,000  Level FlightAware
06:22AM 40.8620 24.6480 154° Southeast 482 555 37,000  Level FlightAware
06:23AM 40.7410 24.7240 155° Southeast 521 600 37,000  Level FlightAware
06:24AM 40.6740 24.7670 154° Southeast 521 600 37,000  Level FlightAware
06:25AM 40.6080 24.8090 154° Southeast 521 600 37,000  Level FlightAware
06:25AM 40.4940 24.8790 155° Southeast 37,000  Level FlightAware
06:26AM 40.3710 24.9560 154° Southeast 526 605 37,000  Level FlightAware
06:27AM 40.2890 25.0080 154° Southeast 526 605 37,000  Level FlightAware
06:27AM 40.2140 25.0550 154° Southeast 526 605 37,000  Level FlightAware
06:28AM 40.1300 25.1070 155° Southeast 524 603 37,000  Level FlightAware
06:28AM 40.0580 25.1520 154° Southeast 523 602 37,000  Level FlightAware
06:29AM 39.9820 25.1980 155° Southeast 525 604 37,000  Level FlightAware
06:30AM 39.9020 25.2430 157° South 527 606 37,000  Level FlightAware
06:30AM 39.8280 25.2770 161° South 527 606 37,000  Level FlightAware
06:31AM 39.7490 25.3090 163° South 528 608 37,000  Level FlightAware
06:31AM 39.6580 25.3440 164° South 529 609 37,000  Level FlightAware
06:32AM 39.5710 25.3790 163° South 528 608 37,000  Level FlightAware
06:33AM 39.4970 25.4090 163° South 528 608 37,000  Level FlightAware
06:33AM 39.4130 25.4430 163° South 528 608 37,000  Level FlightAware
06:34AM 39.3290 25.4770 163° South 526 605 37,000  Level FlightAware
06:34AM 39.2490 25.5090 163° South 527 606 37,000  Level FlightAware
06:35AM 39.1680 25.5420 162° South 527 606 37,000  Level FlightAware
06:35AM 39.0830 25.5760 163° South 527 606 37,000  Level FlightAware
06:36AM 39.0040 25.6080 163° South 527 606 37,000  Level FlightAware
06:37AM 38.9180 25.6420 163° South 527 606 37,000  Level FlightAware
06:37AM 38.8430 25.6720 163° South 527 606 37,000  Level FlightAware
06:38AM 38.7450 25.7110 163° South 527 606 37,000  Level FlightAware
06:38AM 38.6600 25.7450 163° South 528 608 37,000  Level FlightAware
06:39AM 38.5760 25.7790 162° South 528 608 37,000  Level FlightAware
06:40AM 38.5010 25.8080 163° South 528 608 37,000  Level FlightAware
06:40AM 38.4140 25.8420 163° South 528 608 37,000  Level FlightAware
06:41AM 38.3300 25.8750 163° South 528 608 37,000  Level FlightAware
06:41AM 38.2530 25.9060 162° South 528 608 37,000  Level FlightAware
06:42AM 38.1710 25.9450 159° South 527 606 37,000  Level FlightAware
06:43AM 38.0870 25.9820 161° South 528 608 37,000  Level FlightAware
06:43AM 38.0140 26.0150 160° South 528 608 37,000  Level FlightAware
06:44AM 37.9260 26.0540 161° South 529 609 37,000  Level FlightAware
06:44AM 37.8520 26.0870 161° South 528 608 37,000  Level FlightAware
06:45AM 37.7740 26.1210 161° South 529 609 37,000  Level FlightAware
06:45AM 37.6890 26.1680 156° South 524 603 37,000  Level FlightAware
06:46AM 37.6170 26.2260 147° Southeast 519 597 37,000  Level FlightAware
06:47AM 37.5460 26.2920 144° Southeast 519 597 37,000  Level FlightAware
06:47AM 37.4840 26.3490 144° Southeast 519 597 37,000  Level FlightAware
06:48AM 37.4140 26.4140 144° Southeast 518 596 37,000  Level FlightAware
06:48AM 37.3430 26.4780 144° Southeast 517 595 37,000  Level FlightAware
06:49AM 37.2760 26.5390 144° Southeast 517 595 37,000  Level FlightAware
06:50AM 37.2130 26.5950 145° Southeast 517 595 37,000  Level FlightAware
06:50AM 37.1420 26.6600 144° Southeast 517 595 37,000  Level FlightAware
06:51AM 37.0720 26.7230 144° Southeast 516 594 37,000  Level FlightAware
06:51AM 37.0100 26.7790 144° Southeast 515 593 37,000  Level FlightAware
06:52AM 36.9230 26.8550 145° Southeast 515 593 37,000  Level FlightAware
06:53AM 36.8590 26.9140 144° Southeast 515 593 37,000  Level FlightAware
06:53AM 36.7880 26.9760 145° Southeast 515 593 37,000  Level FlightAware
06:54AM 36.7180 27.0390 144° Southeast 516 594 37,000  Level FlightAware
06:54AM 36.6480 27.1010 145° Southeast 516 594 37,000  Level FlightAware
06:55AM 36.5910 27.1510 145° Southeast 517 595 37,000  Level FlightAware
06:56AM 36.5050 27.2260 145° Southeast 516 594 37,000  Level FlightAware
06:56AM 36.4320 27.2920 144° Southeast 514 592 37,000  Level FlightAware
06:57AM 36.3680 27.3480 145° Southeast 514 592 37,000  Level FlightAware
06:57AM 36.2900 27.4160 145° Southeast 513 590 37,000  Level FlightAware
06:58AM 36.2230 27.4760 144° Southeast 512 589 37,000  Level FlightAware
06:59AM 36.1590 27.5480 138° Southeast 504 580 37,000  Level FlightAware
06:59AM 36.1070 27.6260 130° Southeast 500 575 37,000  Level FlightAware
07:00AM 36.0590 27.7060 127° Southeast 498 573 37,000  Level FlightAware
07:00AM 36.0090 27.7870 127° Southeast 496 571 37,000  Level FlightAware
07:01AM 35.9590 27.8680 127° Southeast 497 572 37,000  Level FlightAware
07:02AM 35.9140 27.9380 128° Southeast 497 572 37,000  Level FlightAware
07:02AM 35.8600 28.0250 127° Southeast 496 571 37,000  Level FlightAware
07:03AM 35.8100 28.1030 128° Southeast 496 571 37,000  Level FlightAware
07:03AM 35.7640 28.1770 127° Southeast 498 573 37,000  Level FlightAware
07:04AM 35.7160 28.2530 128° Southeast 498 573 37,000  Level FlightAware
07:05AM 35.6620 28.3380 128° Southeast 501 577 37,000  Level FlightAware
07:05AM 35.6170 28.4100 128° Southeast 502 578 37,000  Level FlightAware
07:06AM 35.5640 28.4910 129° Southeast 503 579 37,000  Level FlightAware
07:06AM 35.5100 28.5770 128° Southeast 505 581 37,000  Level FlightAware
07:07AM 35.4640 28.6490 128° Southeast 507 583 37,000  Level FlightAware
07:07AM 35.4120 28.7280 129° Southeast 508 585 37,000  Level FlightAware
07:08AM 35.3600 28.8130 127° Southeast 508 585 37,000  Level FlightAware
07:09AM 35.3130 28.8850 129° Southeast 509 586 37,000  Level FlightAware
07:09AM 35.2610 28.9670 128° Southeast 509 586 37,000  Level FlightAware
07:10AM 35.2070 29.0480 129° Southeast 508 585 37,000  Level FlightAware
07:10AM 35.1590 29.1220 128° Southeast 508 585 37,000  Level FlightAware
07:11AM 35.1200 29.1830 128° Southeast 507 583 37,000  Level FlightAware
07:11AM 35.0570 29.2800 128° Southeast 508 585 37,000  Level FlightAware
07:12AM 35.0000 29.3670 129° Southeast 508 585 37,000  Level FlightAware
07:13AM 34.9290 29.4750 129° Southeast 509 586 37,000  Level FlightAware
07:14AM 34.8800 29.5490 129° Southeast 512 589 37,000  Level FlightAware
07:14AM 34.8210 29.6400 128° Southeast 514 592 37,000  Level FlightAware
07:15AM 34.7630 29.7280 129° Southeast 513 590 37,000  Level FlightAware
07:15AM 34.7190 29.7950 129° Southeast 512 589 37,000  Level FlightAware
07:16AM 34.6680 29.8720 129° Southeast 512 589 37,000  Level FlightAware
07:17AM 34.6070 29.9650 129° Southeast 513 590 37,000  Level FlightAware
07:17AM 34.5590 30.0480 125° Southeast 613 705 37,000  Level FlightAware
07:18AM 34.5140 30.1440 120° Southeast 523 602 37,000  Level FlightAware
07:18AM 34.4790 30.2180 120° Southeast 522 601 37,000  Level FlightAware
07:19AM 34.4200 30.3410 120° Southeast 524 603 37,000  Level FlightAware
07:20AM 34.3770 30.4280 121° Southeast 525 604 37,000  Level FlightAware
07:20AM 34.3340 30.5200 119° Southeast 525 604 37,000  Level FlightAware
07:21AM 34.2900 30.6090 121° Southeast 527 606 37,000  Level FlightAware
07:21AM 34.2470 30.6990 120° Southeast 529 609 37,000  Level FlightAware
07:22AM 34.2030 30.7890 121° Southeast 536 617 37,000  Level FlightAware
07:23AM 34.1560 30.8850 121° Southeast 540 621 37,000  Level FlightAware
07:23AM 34.1060 30.9870 121° Southeast 541 623 37,000  Level FlightAware
07:24AM 34.0620 31.0780 120° Southeast 542 624 37,000  Level FlightAware
07:24AM 34.0170 31.1690 121° Southeast 543 625 37,000  Level FlightAware
07:25AM 33.9710 31.2630 121° Southeast 544 626 37,000  Level FlightAware
07:26AM 33.9250 31.3570 121° Southeast 542 624 37,000  Level FlightAware
07:26AM 33.8790 31.4490 121° Southeast 544 626 37,000  Level FlightAware
07:27AM 33.8260 31.5560 121° Southeast 547 629 37,000  Level FlightAware
07:27AM 33.7780 31.6510 121° Southeast 550 633 37,000  Level FlightAware
07:28AM 33.7310 31.7470 120° Southeast 553 636 37,000  Level FlightAware
07:29AM 33.6870 31.8350 121° Southeast 560 644 37,000  Level FlightAware
07:29AM 33.6390 31.9310 121° Southeast 561 646 37,000  Level FlightAware
07:30AM 33.5910 32.0270 121° Southeast 562 647 37,000  Level FlightAware
07:30AM 33.5430 32.1200 122° Southeast 563 648 37,000  Level FlightAware
07:31AM 33.4900 32.2270 121° Southeast 561 646 37,000 -180 Level FlightAware
07:32AM 33.4450 32.3140 122° Southeast 559 643 36,800 -360 Descending FlightAware
07:32AM 33.3880 32.4270 121° Southeast 554 638 36,600 -420 Descending FlightAware
07:33AM 33.3380 32.5260 121° Southeast 551 634 36,300 -540 Descending FlightAware
07:34AM 33.2940 32.6100 122° Southeast 550 633 36,000 -660 Descending FlightAware
07:34AM 33.2500 32.6980 121° Southeast 552 635 35,600 -780 Descending FlightAware
07:35AM 33.2060 32.7810 122° Southeast 555 639 35,200 -900 Descending FlightAware
07:35AM 33.1490 32.8930 121° Southeast 547 629 34,500 -1,560 Descending FlightAware
07:36AM 33.1030 32.9830 121° Southeast 548 631 33,200 -1,380 Descending FlightAware
07:36AM 33.0610 33.0630 122° Southeast 553 636 33,000 -840 Descending FlightAware
07:37AM 33.0160 33.1510 121° Southeast 548 631 32,300 -2,280 Descending FlightAware
07:38AM 32.9630 33.2540 121° Southeast 548 631 30,200 -2,400 Descending FlightAware
07:38AM 32.9100 33.3540 122° Southeast 520 598 29,100 -1,620 Descending FlightAware
07:39AM 32.8690 33.4420 119° Southeast 510 587 28,200 -1,500 Descending FlightAware
07:39AM 32.8550 33.4980 107° East 509 586 27,700 -1,440 Descending FlightAware
07:40AM 32.8510 33.5570 95° East 502 578 27,200 -1,800 Descending FlightAware
07:40AM 32.8520 33.6480 89° East 480 552 26,100 -2,220 Descending FlightAware
07:41AM 32.8530 33.7430 89° East 459 528 24,600 -2,640 Descending FlightAware
07:41AM 32.8530 33.8330 90° East 447 514 22,900 -2,760 Descending FlightAware
07:42AM 32.8530 33.9170 90° East 432 497 21,400 -2,640 Descending FlightAware
07:43AM 32.8520 33.9920 91° East 420 483 20,000 -2,520 Descending FlightAware
07:43AM 32.8490 34.0330 95° East 411 473 19,300 -2,220 Descending FlightAware
07:43AM 32.8420 34.0570 109° East 394 453 18,900 -1,980 Descending FlightAware
07:43AM 32.8270 34.0860 122° Southeast 369 425 18,400 -1,980 Descending FlightAware
07:43AM 32.8130 34.1020 136° Southeast 351 404 18,000 -2,280 Descending FlightAware
07:44AM 32.7960 34.1120 154° Southeast 332 382 17,500 -2,160 Descending FlightAware
07:44AM 32.7740 34.1170 169° South 318 366 17,000 -2,220 Descending FlightAware
07:45AM 32.7200 34.1220 176° South 308 354 15,600 -2,340 Descending FlightAware
07:45AM 32.6760 34.1260 176° South 305 351 14,400 -2,400 Descending FlightAware
07:46AM 32.6230 34.1300 176° South 304 350 12,900 -2,220 Descending FlightAware
07:46AM 32.5730 34.1330 177° South 299 344 11,700 -1,980 Descending FlightAware
07:47AM 32.5250 34.1350 178° South 293 337 10,600 -1,740 Descending FlightAware
07:47AM 32.4880 34.1360 179° South 288 331 9,900 -1,620 Descending FlightAware
07:48AM 32.4650 34.1370 178° South 285 328 9,400 -1,500 Descending FlightAware
07:48AM 32.4360 34.1390 177° South 283 326 8,900 -1,500 Descending FlightAware
07:48AM 32.4210 34.1430 167° South 286 329 8,600 -1,680 Descending FlightAware
07:48AM 32.4080 34.1500 156° South 288 331 8,300 -1,500 Descending FlightAware
07:49AM 32.3890 34.1660 145° Southeast 290 334 7,900 -1,500 Descending FlightAware
07:49AM 32.3790 34.1800 130° Southeast 294 338 7,600 -1,380 Descending FlightAware
07:49AM 32.3650 34.2040 125° Southeast 293 337 7,200 -1,380 Descending FlightAware
07:50AM 32.3470 34.2380 122° Southeast 289 333 6,600 -1,080 Descending FlightAware
07:50AM 32.3330 34.2650 122° Southeast 287 330 6,400 -600 Descending FlightAware
07:50AM 32.3190 34.2930 121° Southeast 293 337 6,200 -480 Descending FlightAware
07:51AM 32.3050 34.3180 124° Southeast 291 335 6,100 -180 Descending FlightAware
07:51AM 32.2880 34.3490 123° Southeast 291 335 6,100  Level FlightAware
07:54AM 32.1176 34.7155 132° Southeast  Level FlightAware Approximate
07:55AM 32.0286 34.8381 140° Southeast  Level FlightAware Approximate
07:56AM 32.0000 34.8667 140° Southeast  Level FlightAware Approximate
07:57AM 32.0095 34.8769 140° Southeast  Level Estimated
07:58AM 32.0095 34.8769 140° Southeast  Level Estimated
07:59AM 32.0095 34.8769 140° Southeast  Level Estimated
08:00AM 32.0095 34.8769 140° Southeast  Level Estimated
08:01AM 32.0095 34.8769 140° Southeast  Level Estimated
08:02AM 32.0095 34.8769 140° Southeast  Level Estimated
08:03AM 32.0095 34.8769 140° Southeast  Level Estimated
08:04AM 32.0095 34.8769 140° Southeast  Level Estimated
08:05AM 32.0095 34.8769 140° Southeast  Level Estimated